sensor_id;sensor_type;location;lat;lon;timestamp;temperature;humidity
8780;DHT22;62328;51.19929245;4.42130175;2023-11-19T00:00:06;13.40;99.90
8780;DHT22;62328;51.19929245;4.42130175;2023-11-19T00:02:37;13.40;99.90
8780;DHT22;62328;51.19929245;4.42130175;2023-11-19T00:05:05;13.50;99.90
8780;DHT22;62328;51.19929245;4.42130175;2023-11-19T00:07:35;13.60;99.90
8780;DHT22;62328;51.19929245;4.42130175;2023-11-19T00:10:02;13.40;99.90
8780;DHT22;62328;51.19929245;4.42130175;2023-11-19T00:12:37;13.40;99.90
8780;DHT22;62328;51.19929245;4.42130175;2023-11-19T00:15:04;13.40;99.90
8780;DHT22;62328;51.19929245;4.42130175;2023-11-19T00:17:34;13.40;99.90
8780;DHT22;62328;51.19929245;4.42130175;2023-11-19T00:20:01;13.40;99.90
8780;DHT22;62328;51.19929245;4.42130175;2023-11-19T00:22:32;13.50;99.90
8780;DHT22;62328;51.19929245;4.42130175;2023-11-19T00:24:59;13.40;99.90
8780;DHT22;62328;51.19929245;4.42130175;2023-11-19T00:27:26;13.50;99.90
8780;DHT22;62328;51.19929245;4.42130175;2023-11-19T00:29:53;13.40;99.90
8780;DHT22;62328;51.19929245;4.42130175;2023-11-19T00:32:19;13.50;99.90
8780;DHT22;62328;51.19929245;4.42130175;2023-11-19T00:34:46;13.50;99.90
8780;DHT22;62328;51.19929245;4.42130175;2023-11-19T00:37:13;13.40;99.90
8780;DHT22;62328;51.19929245;4.42130175;2023-11-19T00:39:42;13.50;99.90
8780;DHT22;62328;51.19929245;4.42130175;2023-11-19T00:42:09;13.50;99.90
8780;DHT22;62328;51.19929245;4.42130175;2023-11-19T00:44:36;13.50;99.90
8780;DHT22;62328;51.19929245;4.42130175;2023-11-19T00:47:03;13.50;99.90
8780;DHT22;62328;51.19929245;4.42130175;2023-11-19T00:49:30;13.50;99.90
8780;DHT22;62328;51.19929245;4.42130175;2023-11-19T00:51:58;13.50;99.90
8780;DHT22;62328;51.19929245;4.42130175;2023-11-19T00:54:25;13.50;99.90
8780;DHT22;62328;51.19929245;4.42130175;2023-11-19T00:56:53;13.50;99.90
8780;DHT22;62328;51.19929245;4.42130175;2023-11-19T00:59:20;13.60;99.90
8780;DHT22;62328;51.19929245;4.42130175;2023-11-19T01:01:47;13.60;99.90
8780;DHT22;62328;51.19929245;4.42130175;2023-11-19T01:04:14;13.60;99.90
8780;DHT22;62328;51.19929245;4.42130175;2023-11-19T01:06:41;13.60;99.90
8780;DHT22;62328;51.19929245;4.42130175;2023-11-19T01:09:08;13.60;99.90
8780;DHT22;62328;51.19929245;4.42130175;2023-11-19T01:11:35;13.60;99.90
8780;DHT22;62328;51.19929245;4.42130175;2023-11-19T01:14:03;13.60;99.90
8780;DHT22;62328;51.19929245;4.42130175;2023-11-19T01:16:30;13.50;99.90
8780;DHT22;62328;51.19929245;4.42130175;2023-11-19T01:18:57;13.50;99.90
8780;DHT22;62328;51.19929245;4.42130175;2023-11-19T01:21:24;13.50;99.90
8780;DHT22;62328;51.19929245;4.42130175;2023-11-19T01:23:51;13.50;99.90
8780;DHT22;62328;51.19929245;4.42130175;2023-11-19T01:26:18;13.50;99.90
8780;DHT22;62328;51.19929245;4.42130175;2023-11-19T01:28:45;13.50;99.90
8780;DHT22;62328;51.19929245;4.42130175;2023-11-19T01:31:15;13.50;99.90
8780;DHT22;62328;51.19929245;4.42130175;2023-11-19T01:33:42;13.40;99.90
8780;DHT22;62328;51.19929245;4.42130175;2023-11-19T01:36:12;13.40;99.90
8780;DHT22;62328;51.19929245;4.42130175;2023-11-19T01:38:39;13.40;99.90
8780;DHT22;62328;51.19929245;4.42130175;2023-11-19T01:41:06;13.40;99.90
8780;DHT22;62328;51.19929245;4.42130175;2023-11-19T01:43:37;13.40;99.90
8780;DHT22;62328;51.19929245;4.42130175;2023-11-19T01:46:05;13.40;99.90
8780;DHT22;62328;51.19929245;4.42130175;2023-11-19T01:48:34;13.40;99.90
8780;DHT22;62328;51.19929245;4.42130175;2023-11-19T01:51:05;13.40;99.90
8780;DHT22;62328;51.19929245;4.42130175;2023-11-19T01:53:32;13.40;99.90
8780;DHT22;62328;51.19929245;4.42130175;2023-11-19T01:56:00;13.60;99.90
8780;DHT22;62328;51.19929245;4.42130175;2023-11-19T01:58:28;13.30;99.90
8780;DHT22;62328;51.19929245;4.42130175;2023-11-19T02:00:56;13.40;99.90
8780;DHT22;62328;51.19929245;4.42130175;2023-11-19T02:03:24;13.30;99.90
8780;DHT22;62328;51.19929245;4.42130175;2023-11-19T02:05:53;13.30;99.90
8780;DHT22;62328;51.19929245;4.42130175;2023-11-19T02:08:21;13.30;99.90
8780;DHT22;62328;51.19929245;4.42130175;2023-11-19T02:10:48;13.40;99.90
8780;DHT22;62328;51.19929245;4.42130175;2023-11-19T02:13:14;13.30;99.90
8780;DHT22;62328;51.19929245;4.42130175;2023-11-19T02:15:42;13.30;99.90
8780;DHT22;62328;51.19929245;4.42130175;2023-11-19T02:18:20;13.30;99.90
8780;DHT22;62328;51.19929245;4.42130175;2023-11-19T02:20:48;13.30;99.90
8780;DHT22;62328;51.19929245;4.42130175;2023-11-19T02:23:17;13.20;99.90
8780;DHT22;62328;51.19929245;4.42130175;2023-11-19T02:25:47;13.20;99.90
8780;DHT22;62328;51.19929245;4.42130175;2023-11-19T02:28:17;13.20;99.90
8780;DHT22;62328;51.19929245;4.42130175;2023-11-19T02:30:45;13.10;99.90
8780;DHT22;62328;51.19929245;4.42130175;2023-11-19T02:33:12;13.10;99.90
8780;DHT22;62328;51.19929245;4.42130175;2023-11-19T02:35:38;13.10;99.90
8780;DHT22;62328;51.19929245;4.42130175;2023-11-19T02:38:06;13.10;99.90
8780;DHT22;62328;51.19929245;4.42130175;2023-11-19T02:40:33;13.10;99.90
8780;DHT22;62328;51.19929245;4.42130175;2023-11-19T02:43:00;13.10;99.90
8780;DHT22;62328;51.19929245;4.42130175;2023-11-19T02:45:31;13.10;99.90
8780;DHT22;62328;51.19929245;4.42130175;2023-11-19T02:47:58;13.20;99.90
8780;DHT22;62328;51.19929245;4.42130175;2023-11-19T02:50:27;13.20;99.90
8780;DHT22;62328;51.19929245;4.42130175;2023-11-19T02:52:55;13.10;99.90
8780;DHT22;62328;51.19929245;4.42130175;2023-11-19T02:55:22;13.10;99.90
8780;DHT22;62328;51.19929245;4.42130175;2023-11-19T02:57:50;13.00;99.90
8780;DHT22;62328;51.19929245;4.42130175;2023-11-19T03:00:20;13.00;99.90
8780;DHT22;62328;51.19929245;4.42130175;2023-11-19T03:02:51;13.40;99.90
8780;DHT22;62328;51.19929245;4.42130175;2023-11-19T03:05:25;13.00;99.90
8780;DHT22;62328;51.19929245;4.42130175;2023-11-19T03:07:52;13.00;99.90
8780;DHT22;62328;51.19929245;4.42130175;2023-11-19T03:10:19;13.00;99.90
8780;DHT22;62328;51.19929245;4.42130175;2023-11-19T03:12:45;12.90;99.90
8780;DHT22;62328;51.19929245;4.42130175;2023-11-19T03:15:12;13.00;99.90
8780;DHT22;62328;51.19929245;4.42130175;2023-11-19T03:17:40;13.00;99.90
8780;DHT22;62328;51.19929245;4.42130175;2023-11-19T03:20:10;12.90;99.90
8780;DHT22;62328;51.19929245;4.42130175;2023-11-19T03:22:40;12.90;99.90
8780;DHT22;62328;51.19929245;4.42130175;2023-11-19T03:25:08;12.90;99.90
8780;DHT22;62328;51.19929245;4.42130175;2023-11-19T03:27:35;12.90;99.90
8780;DHT22;62328;51.19929245;4.42130175;2023-11-19T03:30:03;12.90;99.90
8780;DHT22;62328;51.19929245;4.42130175;2023-11-19T03:32:31;12.90;99.90
8780;DHT22;62328;51.19929245;4.42130175;2023-11-19T03:34:58;12.90;99.90
8780;DHT22;62328;51.19929245;4.42130175;2023-11-19T03:37:27;12.90;99.90
8780;DHT22;62328;51.19929245;4.42130175;2023-11-19T03:39:54;12.90;99.90
8780;DHT22;62328;51.19929245;4.42130175;2023-11-19T03:42:25;12.90;99.90
8780;DHT22;62328;51.19929245;4.42130175;2023-11-19T03:44:52;12.90;99.90
8780;DHT22;62328;51.19929245;4.42130175;2023-11-19T03:47:19;12.90;99.90
8780;DHT22;62328;51.19929245;4.42130175;2023-11-19T03:49:48;12.90;99.90
8780;DHT22;62328;51.19929245;4.42130175;2023-11-19T03:52:15;12.90;99.90
8780;DHT22;62328;51.19929245;4.42130175;2023-11-19T03:54:43;12.90;99.90
8780;DHT22;62328;51.19929245;4.42130175;2023-11-19T03:57:11;12.90;99.90
8780;DHT22;62328;51.19929245;4.42130175;2023-11-19T03:59:38;12.90;99.90
8780;DHT22;62328;51.19929245;4.42130175;2023-11-19T04:02:04;13.00;99.90
8780;DHT22;62328;51.19929245;4.42130175;2023-11-19T04:04:32;12.90;99.90
8780;DHT22;62328;51.19929245;4.42130175;2023-11-19T04:07:00;12.90;99.90
8780;DHT22;62328;51.19929245;4.42130175;2023-11-19T04:09:28;12.90;99.90
8780;DHT22;62328;51.19929245;4.42130175;2023-11-19T04:11:56;12.90;99.90
8780;DHT22;62328;51.19929245;4.42130175;2023-11-19T04:14:23;13.00;99.90
8780;DHT22;62328;51.19929245;4.42130175;2023-11-19T04:16:50;13.00;99.90
8780;DHT22;62328;51.19929245;4.42130175;2023-11-19T04:19:17;12.90;99.90
8780;DHT22;62328;51.19929245;4.42130175;2023-11-19T04:21:44;12.90;99.90
8780;DHT22;62328;51.19929245;4.42130175;2023-11-19T04:24:11;12.90;99.90
8780;DHT22;62328;51.19929245;4.42130175;2023-11-19T04:26:40;12.90;99.90
8780;DHT22;62328;51.19929245;4.42130175;2023-11-19T04:29:11;12.90;99.90
8780;DHT22;62328;51.19929245;4.42130175;2023-11-19T04:31:38;12.80;99.90
8780;DHT22;62328;51.19929245;4.42130175;2023-11-19T04:34:05;12.80;99.90
8780;DHT22;62328;51.19929245;4.42130175;2023-11-19T04:36:31;12.80;99.90
8780;DHT22;62328;51.19929245;4.42130175;2023-11-19T04:38:58;12.80;99.90
8780;DHT22;62328;51.19929245;4.42130175;2023-11-19T04:41:26;12.70;99.90
8780;DHT22;62328;51.19929245;4.42130175;2023-11-19T04:43:54;12.70;99.90
8780;DHT22;62328;51.19929245;4.42130175;2023-11-19T04:46:22;12.70;99.90
8780;DHT22;62328;51.19929245;4.42130175;2023-11-19T04:48:50;12.70;99.90
8780;DHT22;62328;51.19929245;4.42130175;2023-11-19T04:51:16;12.60;99.90
8780;DHT22;62328;51.19929245;4.42130175;2023-11-19T04:53:43;12.60;99.90
8780;DHT22;62328;51.19929245;4.42130175;2023-11-19T04:56:11;12.60;99.90
8780;DHT22;62328;51.19929245;4.42130175;2023-11-19T04:58:39;12.60;99.90
8780;DHT22;62328;51.19929245;4.42130175;2023-11-19T05:01:06;12.50;99.90
8780;DHT22;62328;51.19929245;4.42130175;2023-11-19T05:03:36;12.50;99.90
8780;DHT22;62328;51.19929245;4.42130175;2023-11-19T05:06:04;12.50;99.90
8780;DHT22;62328;51.19929245;4.42130175;2023-11-19T05:08:30;12.50;99.90
8780;DHT22;62328;51.19929245;4.42130175;2023-11-19T05:10:57;12.50;99.90
8780;DHT22;62328;51.19929245;4.42130175;2023-11-19T05:13:25;12.50;99.90
8780;DHT22;62328;51.19929245;4.42130175;2023-11-19T05:15:51;12.50;99.90
8780;DHT22;62328;51.19929245;4.42130175;2023-11-19T05:18:18;12.40;99.90
8780;DHT22;62328;51.19929245;4.42130175;2023-11-19T05:20:47;12.40;99.90
8780;DHT22;62328;51.19929245;4.42130175;2023-11-19T05:23:13;12.40;99.90
8780;DHT22;62328;51.19929245;4.42130175;2023-11-19T05:25:40;12.40;99.90
8780;DHT22;62328;51.19929245;4.42130175;2023-11-19T05:28:07;12.40;99.90
8780;DHT22;62328;51.19929245;4.42130175;2023-11-19T05:30:34;12.40;99.90
8780;DHT22;62328;51.19929245;4.42130175;2023-11-19T05:33:01;12.30;99.90
8780;DHT22;62328;51.19929245;4.42130175;2023-11-19T05:35:27;12.40;99.90
8780;DHT22;62328;51.19929245;4.42130175;2023-11-19T05:37:56;12.30;99.90
8780;DHT22;62328;51.19929245;4.42130175;2023-11-19T05:40:23;12.30;99.90
8780;DHT22;62328;51.19929245;4.42130175;2023-11-19T05:42:50;12.30;99.90
8780;DHT22;62328;51.19929245;4.42130175;2023-11-19T05:45:16;12.30;99.90
8780;DHT22;62328;51.19929245;4.42130175;2023-11-19T05:47:43;12.30;99.90
8780;DHT22;62328;51.19929245;4.42130175;2023-11-19T05:50:10;12.30;99.90
8780;DHT22;62328;51.19929245;4.42130175;2023-11-19T05:52:37;12.20;99.90
8780;DHT22;62328;51.19929245;4.42130175;2023-11-19T05:55:06;12.20;99.90
8780;DHT22;62328;51.19929245;4.42130175;2023-11-19T05:57:35;12.20;99.90
8780;DHT22;62328;51.19929245;4.42130175;2023-11-19T06:00:02;12.20;99.90
8780;DHT22;62328;51.19929245;4.42130175;2023-11-19T06:02:32;12.20;99.90
8780;DHT22;62328;51.19929245;4.42130175;2023-11-19T06:04:59;12.20;99.90
8780;DHT22;62328;51.19929245;4.42130175;2023-11-19T06:07:26;12.20;99.90
8780;DHT22;62328;51.19929245;4.42130175;2023-11-19T06:09:53;12.20;99.90
8780;DHT22;62328;51.19929245;4.42130175;2023-11-19T06:12:21;12.20;99.90
8780;DHT22;62328;51.19929245;4.42130175;2023-11-19T06:14:48;12.10;99.90
8780;DHT22;62328;51.19929245;4.42130175;2023-11-19T06:17:14;12.20;99.90
8780;DHT22;62328;51.19929245;4.42130175;2023-11-19T06:19:41;12.20;99.90
8780;DHT22;62328;51.19929245;4.42130175;2023-11-19T06:22:08;12.20;99.90
8780;DHT22;62328;51.19929245;4.42130175;2023-11-19T06:24:35;12.20;99.90
8780;DHT22;62328;51.19929245;4.42130175;2023-11-19T06:27:02;12.20;99.90
8780;DHT22;62328;51.19929245;4.42130175;2023-11-19T06:29:31;12.10;99.90
8780;DHT22;62328;51.19929245;4.42130175;2023-11-19T06:31:58;12.10;99.90
8780;DHT22;62328;51.19929245;4.42130175;2023-11-19T06:34:24;12.10;99.90
8780;DHT22;62328;51.19929245;4.42130175;2023-11-19T06:36:51;12.10;99.90
8780;DHT22;62328;51.19929245;4.42130175;2023-11-19T06:39:18;12.10;99.90
8780;DHT22;62328;51.19929245;4.42130175;2023-11-19T06:41:45;12.10;99.90
8780;DHT22;62328;51.19929245;4.42130175;2023-11-19T06:44:12;12.00;99.90
8780;DHT22;62328;51.19929245;4.42130175;2023-11-19T06:46:41;12.10;99.90
8780;DHT22;62328;51.19929245;4.42130175;2023-11-19T06:49:07;12.00;99.90
8780;DHT22;62328;51.19929245;4.42130175;2023-11-19T06:51:34;12.00;99.90
8780;DHT22;62328;51.19929245;4.42130175;2023-11-19T06:54:01;12.00;99.90
8780;DHT22;62328;51.19929245;4.42130175;2023-11-19T06:56:28;12.00;99.90
8780;DHT22;62328;51.19929245;4.42130175;2023-11-19T06:58:55;12.00;99.90
8780;DHT22;62328;51.19929245;4.42130175;2023-11-19T07:01:21;11.90;99.90
8780;DHT22;62328;51.19929245;4.42130175;2023-11-19T07:03:50;11.90;99.90
8780;DHT22;62328;51.19929245;4.42130175;2023-11-19T07:06:17;11.90;99.90
8780;DHT22;62328;51.19929245;4.42130175;2023-11-19T07:08:44;11.90;99.90
8780;DHT22;62328;51.19929245;4.42130175;2023-11-19T07:11:11;12.00;99.90
8780;DHT22;62328;51.19929245;4.42130175;2023-11-19T07:13:39;12.00;99.90
8780;DHT22;62328;51.19929245;4.42130175;2023-11-19T07:16:07;12.00;99.90
8780;DHT22;62328;51.19929245;4.42130175;2023-11-19T07:18:35;12.00;99.90
8780;DHT22;62328;51.19929245;4.42130175;2023-11-19T07:21:04;12.00;99.90
8780;DHT22;62328;51.19929245;4.42130175;2023-11-19T07:23:31;12.00;99.90
8780;DHT22;62328;51.19929245;4.42130175;2023-11-19T07:25:58;12.00;99.90
8780;DHT22;62328;51.19929245;4.42130175;2023-11-19T07:28:25;12.00;99.90
8780;DHT22;62328;51.19929245;4.42130175;2023-11-19T07:30:54;12.00;99.90
8780;DHT22;62328;51.19929245;4.42130175;2023-11-19T07:33:22;11.90;99.90
8780;DHT22;62328;51.19929245;4.42130175;2023-11-19T07:35:49;11.90;99.90
8780;DHT22;62328;51.19929245;4.42130175;2023-11-19T07:38:17;12.00;99.90
8780;DHT22;62328;51.19929245;4.42130175;2023-11-19T07:40:44;11.90;99.90
8780;DHT22;62328;51.19929245;4.42130175;2023-11-19T07:43:11;11.90;99.90
8780;DHT22;62328;51.19929245;4.42130175;2023-11-19T07:45:38;11.80;99.90
8780;DHT22;62328;51.19929245;4.42130175;2023-11-19T07:48:05;11.90;99.90
8780;DHT22;62328;51.19929245;4.42130175;2023-11-19T07:50:32;11.90;99.90
8780;DHT22;62328;51.19929245;4.42130175;2023-11-19T07:52:59;11.90;99.90
8780;DHT22;62328;51.19929245;4.42130175;2023-11-19T07:55:27;12.00;99.90
8780;DHT22;62328;51.19929245;4.42130175;2023-11-19T07:57:54;12.00;99.90
8780;DHT22;62328;51.19929245;4.42130175;2023-11-19T08:00:21;12.00;99.90
8780;DHT22;62328;51.19929245;4.42130175;2023-11-19T08:02:48;12.20;99.90
8780;DHT22;62328;51.19929245;4.42130175;2023-11-19T08:05:14;12.10;99.90
8780;DHT22;62328;51.19929245;4.42130175;2023-11-19T08:07:41;12.10;99.90
8780;DHT22;62328;51.19929245;4.42130175;2023-11-19T08:10:08;12.10;99.90
8780;DHT22;62328;51.19929245;4.42130175;2023-11-19T08:12:37;12.20;99.90
8780;DHT22;62328;51.19929245;4.42130175;2023-11-19T08:15:05;12.10;99.90
8780;DHT22;62328;51.19929245;4.42130175;2023-11-19T08:17:32;12.10;99.90
8780;DHT22;62328;51.19929245;4.42130175;2023-11-19T08:19:59;12.10;99.90
8780;DHT22;62328;51.19929245;4.42130175;2023-11-19T08:22:26;12.10;99.90
8780;DHT22;62328;51.19929245;4.42130175;2023-11-19T08:24:53;12.20;99.90
8780;DHT22;62328;51.19929245;4.42130175;2023-11-19T08:27:20;12.20;99.90
8780;DHT22;62328;51.19929245;4.42130175;2023-11-19T08:29:53;12.30;99.90
8780;DHT22;62328;51.19929245;4.42130175;2023-11-19T08:32:22;12.30;99.90
8780;DHT22;62328;51.19929245;4.42130175;2023-11-19T08:34:49;12.30;99.90
8780;DHT22;62328;51.19929245;4.42130175;2023-11-19T08:37:16;12.30;99.90
8780;DHT22;62328;51.19929245;4.42130175;2023-11-19T08:39:43;12.30;99.90
8780;DHT22;62328;51.19929245;4.42130175;2023-11-19T08:42:10;12.30;99.90
8780;DHT22;62328;51.19929245;4.42130175;2023-11-19T08:44:37;12.30;99.90
8780;DHT22;62328;51.19929245;4.42130175;2023-11-19T08:47:05;12.40;99.90
8780;DHT22;62328;51.19929245;4.42130175;2023-11-19T08:49:32;12.40;99.90
8780;DHT22;62328;51.19929245;4.42130175;2023-11-19T08:51:58;12.40;99.90
8780;DHT22;62328;51.19929245;4.42130175;2023-11-19T08:54:25;12.50;99.90
8780;DHT22;62328;51.19929245;4.42130175;2023-11-19T08:56:52;12.50;99.90
8780;DHT22;62328;51.19929245;4.42130175;2023-11-19T08:59:19;12.50;99.90
8780;DHT22;62328;51.19929245;4.42130175;2023-11-19T09:01:46;12.60;99.90
8780;DHT22;62328;51.19929245;4.42130175;2023-11-19T09:04:14;12.60;99.90
8780;DHT22;62328;51.19929245;4.42130175;2023-11-19T09:06:41;12.60;99.90
8780;DHT22;62328;51.19929245;4.42130175;2023-11-19T09:09:09;12.60;99.90
8780;DHT22;62328;51.19929245;4.42130175;2023-11-19T09:11:36;12.60;99.90
8780;DHT22;62328;51.19929245;4.42130175;2023-11-19T09:14:03;12.60;99.90
8780;DHT22;62328;51.19929245;4.42130175;2023-11-19T09:16:32;12.60;99.90
8780;DHT22;62328;51.19929245;4.42130175;2023-11-19T09:18:59;12.60;99.90
8780;DHT22;62328;51.19929245;4.42130175;2023-11-19T09:21:29;12.70;99.90
8780;DHT22;62328;51.19929245;4.42130175;2023-11-19T09:23:56;12.70;99.90
8780;DHT22;62328;51.19929245;4.42130175;2023-11-19T09:26:23;12.70;99.90
8780;DHT22;62328;51.19929245;4.42130175;2023-11-19T09:28:50;12.20;99.90
8780;DHT22;62328;51.19929245;4.42130175;2023-11-19T09:31:17;12.80;99.90
8780;DHT22;62328;51.19929245;4.42130175;2023-11-19T09:33:44;12.80;99.90
8780;DHT22;62328;51.19929245;4.42130175;2023-11-19T09:36:12;12.80;99.90
8780;DHT22;62328;51.19929245;4.42130175;2023-11-19T09:38:41;12.80;99.90
8780;DHT22;62328;51.19929245;4.42130175;2023-11-19T09:41:10;12.90;99.90
8780;DHT22;62328;51.19929245;4.42130175;2023-11-19T09:43:39;12.90;99.90
8780;DHT22;62328;51.19929245;4.42130175;2023-11-19T09:46:09;12.90;99.90
8780;DHT22;62328;51.19929245;4.42130175;2023-11-19T09:48:37;13.00;99.90
8780;DHT22;62328;51.19929245;4.42130175;2023-11-19T09:51:06;13.00;99.90
8780;DHT22;62328;51.19929245;4.42130175;2023-11-19T09:53:33;13.00;99.90
8780;DHT22;62328;51.19929245;4.42130175;2023-11-19T09:56:03;13.00;99.90
8780;DHT22;62328;51.19929245;4.42130175;2023-11-19T09:58:32;13.00;99.90
8780;DHT22;62328;51.19929245;4.42130175;2023-11-19T10:00:59;13.00;99.90
8780;DHT22;62328;51.19929245;4.42130175;2023-11-19T10:03:32;13.10;99.90
8780;DHT22;62328;51.19929245;4.42130175;2023-11-19T10:06:01;13.10;99.90
8780;DHT22;62328;51.19929245;4.42130175;2023-11-19T10:08:29;13.10;99.90
8780;DHT22;62328;51.19929245;4.42130175;2023-11-19T10:10:56;13.40;99.90
8780;DHT22;62328;51.19929245;4.42130175;2023-11-19T10:13:28;13.20;99.90
8780;DHT22;62328;51.19929245;4.42130175;2023-11-19T10:15:56;13.20;99.90
8780;DHT22;62328;51.19929245;4.42130175;2023-11-19T10:18:24;13.30;99.90
8780;DHT22;62328;51.19929245;4.42130175;2023-11-19T10:20:52;13.30;99.90
8780;DHT22;62328;51.19929245;4.42130175;2023-11-19T10:23:19;13.30;99.90
8780;DHT22;62328;51.19929245;4.42130175;2023-11-19T10:25:46;13.40;99.90
8780;DHT22;62328;51.19929245;4.42130175;2023-11-19T10:28:15;13.40;99.90
8780;DHT22;62328;51.19929245;4.42130175;2023-11-19T10:30:44;13.40;99.90
8780;DHT22;62328;51.19929245;4.42130175;2023-11-19T10:33:12;13.40;99.90
8780;DHT22;62328;51.19929245;4.42130175;2023-11-19T10:35:52;13.40;99.90
8780;DHT22;62328;51.19929245;4.42130175;2023-11-19T10:38:19;13.40;99.90
8780;DHT22;62328;51.19929245;4.42130175;2023-11-19T10:40:46;13.30;99.90
8780;DHT22;62328;51.19929245;4.42130175;2023-11-19T10:43:13;13.20;99.90
8780;DHT22;62328;51.19929245;4.42130175;2023-11-19T10:45:40;13.20;99.90
8780;DHT22;62328;51.19929245;4.42130175;2023-11-19T10:48:09;13.20;99.90
8780;DHT22;62328;51.19929245;4.42130175;2023-11-19T10:50:39;13.20;99.90
8780;DHT22;62328;51.19929245;4.42130175;2023-11-19T10:53:07;13.20;99.90
8780;DHT22;62328;51.19929245;4.42130175;2023-11-19T10:55:37;13.20;99.90
8780;DHT22;62328;51.19929245;4.42130175;2023-11-19T10:58:05;13.20;99.90
8780;DHT22;62328;51.19929245;4.42130175;2023-11-19T11:00:38;13.30;99.90
8780;DHT22;62328;51.19929245;4.42130175;2023-11-19T11:03:14;13.30;99.90
8780;DHT22;62328;51.19929245;4.42130175;2023-11-19T11:05:42;13.30;99.90
8780;DHT22;62328;51.19929245;4.42130175;2023-11-19T11:08:09;13.30;99.90
8780;DHT22;62328;51.19929245;4.42130175;2023-11-19T11:10:43;13.30;99.90
8780;DHT22;62328;51.19929245;4.42130175;2023-11-19T11:13:11;13.30;99.90
8780;DHT22;62328;51.19929245;4.42130175;2023-11-19T11:15:40;13.30;99.90
8780;DHT22;62328;51.19929245;4.42130175;2023-11-19T11:18:08;13.30;99.90
8780;DHT22;62328;51.19929245;4.42130175;2023-11-19T11:20:37;13.30;99.90
8780;DHT22;62328;51.19929245;4.42130175;2023-11-19T11:26:28;13.30;99.90
8780;DHT22;62328;51.19929245;4.42130175;2023-11-19T11:29:01;13.40;99.90
8780;DHT22;62328;51.19929245;4.42130175;2023-11-19T11:31:36;13.40;99.90
8780;DHT22;62328;51.19929245;4.42130175;2023-11-19T11:34:32;13.40;99.90
8780;DHT22;62328;51.19929245;4.42130175;2023-11-19T11:37:21;13.50;99.90
8780;DHT22;62328;51.19929245;4.42130175;2023-11-19T11:39:52;13.60;99.90
8780;DHT22;62328;51.19929245;4.42130175;2023-11-19T11:42:35;13.70;99.90
8780;DHT22;62328;51.19929245;4.42130175;2023-11-19T11:45:04;13.80;99.90
8780;DHT22;62328;51.19929245;4.42130175;2023-11-19T11:48:06;13.80;99.90
8780;DHT22;62328;51.19929245;4.42130175;2023-11-19T11:50:36;13.90;99.90
8780;DHT22;62328;51.19929245;4.42130175;2023-11-19T11:53:17;14.00;99.90
8780;DHT22;62328;51.19929245;4.42130175;2023-11-19T11:56:00;14.00;99.90
8780;DHT22;62328;51.19929245;4.42130175;2023-11-19T11:58:32;14.00;99.90
8780;DHT22;62328;51.19929245;4.42130175;2023-11-19T12:01:04;14.00;99.90
8780;DHT22;62328;51.19929245;4.42130175;2023-11-19T12:03:32;13.90;99.90
8780;DHT22;62328;51.19929245;4.42130175;2023-11-19T12:05:59;13.80;99.90
8780;DHT22;62328;51.19929245;4.42130175;2023-11-19T12:08:32;13.80;99.90
8780;DHT22;62328;51.19929245;4.42130175;2023-11-19T12:11:04;13.80;99.90
8780;DHT22;62328;51.19929245;4.42130175;2023-11-19T12:13:52;13.60;99.90
8780;DHT22;62328;51.19929245;4.42130175;2023-11-19T12:16:21;13.50;99.90
8780;DHT22;62328;51.19929245;4.42130175;2023-11-19T12:18:49;13.50;99.90
8780;DHT22;62328;51.19929245;4.42130175;2023-11-19T12:21:29;13.40;99.90
8780;DHT22;62328;51.19929245;4.42130175;2023-11-19T12:23:58;13.20;99.90
8780;DHT22;62328;51.19929245;4.42130175;2023-11-19T12:26:37;13.20;99.90
8780;DHT22;62328;51.19929245;4.42130175;2023-11-19T12:29:05;13.10;99.90
8780;DHT22;62328;51.19929245;4.42130175;2023-11-19T12:31:35;13.10;99.90
8780;DHT22;62328;51.19929245;4.42130175;2023-11-19T12:34:08;13.00;99.90
8780;DHT22;62328;51.19929245;4.42130175;2023-11-19T12:36:38;12.90;99.90
8780;DHT22;62328;51.19929245;4.42130175;2023-11-19T12:39:08;12.80;99.90
8780;DHT22;62328;51.19929245;4.42130175;2023-11-19T12:41:52;12.80;99.90
8780;DHT22;62328;51.19929245;4.42130175;2023-11-19T12:44:20;12.70;99.90
8780;DHT22;62328;51.19929245;4.42130175;2023-11-19T12:46:58;12.70;99.90
8780;DHT22;62328;51.19929245;4.42130175;2023-11-19T12:49:26;12.80;99.90
8780;DHT22;62328;51.19929245;4.42130175;2023-11-19T12:51:53;12.80;99.90
8780;DHT22;62328;51.19929245;4.42130175;2023-11-19T12:54:32;12.80;99.90
8780;DHT22;62328;51.19929245;4.42130175;2023-11-19T12:56:58;13.00;99.90
8780;DHT22;62328;51.19929245;4.42130175;2023-11-19T12:59:25;13.00;99.90
8780;DHT22;62328;51.19929245;4.42130175;2023-11-19T13:01:56;13.00;99.90
8780;DHT22;62328;51.19929245;4.42130175;2023-11-19T13:04:28;13.00;99.90
8780;DHT22;62328;51.19929245;4.42130175;2023-11-19T13:06:56;13.10;99.90
8780;DHT22;62328;51.19929245;4.42130175;2023-11-19T13:09:26;13.20;99.90
8780;DHT22;62328;51.19929245;4.42130175;2023-11-19T13:11:54;13.10;99.90
8780;DHT22;62328;51.19929245;4.42130175;2023-11-19T13:14:21;13.20;99.90
8780;DHT22;62328;51.19929245;4.42130175;2023-11-19T13:16:49;13.20;99.90
8780;DHT22;62328;51.19929245;4.42130175;2023-11-19T13:19:16;13.10;99.90
8780;DHT22;62328;51.19929245;4.42130175;2023-11-19T13:21:45;13.10;99.90
8780;DHT22;62328;51.19929245;4.42130175;2023-11-19T13:24:13;13.10;99.90
8780;DHT22;62328;51.19929245;4.42130175;2023-11-19T13:26:41;13.10;99.90
8780;DHT22;62328;51.19929245;4.42130175;2023-11-19T13:29:08;13.10;99.90
8780;DHT22;62328;51.19929245;4.42130175;2023-11-19T13:31:36;13.00;99.90
8780;DHT22;62328;51.19929245;4.42130175;2023-11-19T13:34:03;13.00;99.90
8780;DHT22;62328;51.19929245;4.42130175;2023-11-19T13:36:33;13.10;99.90
8780;DHT22;62328;51.19929245;4.42130175;2023-11-19T13:38:59;13.10;99.90
8780;DHT22;62328;51.19929245;4.42130175;2023-11-19T13:41:26;13.10;99.90
8780;DHT22;62328;51.19929245;4.42130175;2023-11-19T13:43:55;13.10;99.90